sensor_id;sensor_type;location;lat;lon;timestamp;P1;durP1;ratioP1;P2;durP2;ratioP2
51578;SDS011;47998;53.242;6.386;2023-06-22T00:01:23;44.05;;;30.38;;
51578;SDS011;47998;53.242;6.386;2023-06-22T00:03:51;34.15;;;24.00;;
51578;SDS011;47998;53.242;6.386;2023-06-22T00:06:19;461.38;;;30.38;;
51578;SDS011;47998;53.242;6.386;2023-06-22T00:08:47;551.17;;;28.80;;
51578;SDS011;47998;53.242;6.386;2023-06-22T00:11:13;408.42;;;22.20;;
51578;SDS011;47998;53.242;6.386;2023-06-22T00:13:42;370.88;;;20.30;;
51578;SDS011;47998;53.242;6.386;2023-06-22T00:16:14;467.70;;;30.42;;
51578;SDS011;47998;53.242;6.386;2023-06-22T00:18:47;17.58;;;15.43;;
51578;SDS011;47998;53.242;6.386;2023-06-22T00:21:16;55.45;;;15.77;;
51578;SDS011;47998;53.242;6.386;2023-06-22T00:23:49;18.65;;;15.88;;
51578;SDS011;47998;53.242;6.386;2023-06-22T00:26:18;21.15;;;17.10;;
51578;SDS011;47998;53.242;6.386;2023-06-22T00:28:51;23.52;;;18.83;;
51578;SDS011;47998;53.242;6.386;2023-06-22T00:31:17;12.73;;;11.48;;
51578;SDS011;47998;53.242;6.386;2023-06-22T00:33:45;20.25;;;15.45;;
51578;SDS011;47998;53.242;6.386;2023-06-22T00:36:18;23.95;;;18.55;;
51578;SDS011;47998;53.242;6.386;2023-06-22T00:38:48;25.55;;;20.42;;
51578;SDS011;47998;53.242;6.386;2023-06-22T00:41:18;21.45;;;18.85;;
51578;SDS011;47998;53.242;6.386;2023-06-22T00:43:50;28.83;;;22.13;;
51578;SDS011;47998;53.242;6.386;2023-06-22T00:46:23;27.52;;;22.00;;
51578;SDS011;47998;53.242;6.386;2023-06-22T00:48:54;31.70;;;22.45;;
51578;SDS011;47998;53.242;6.386;2023-06-22T00:51:25;13.48;;;12.05;;
51578;SDS011;47998;53.242;6.386;2023-06-22T00:53:57;7.80;;;7.05;;
51578;SDS011;47998;53.242;6.386;2023-06-22T00:56:28;7.15;;;5.93;;
51578;SDS011;47998;53.242;6.386;2023-06-22T00:59:06;4.88;;;4.47;;
51578;SDS011;47998;53.242;6.386;2023-06-22T01:01:38;10.00;;;8.18;;
51578;SDS011;47998;53.242;6.386;2023-06-22T01:04:06;7.55;;;6.85;;
51578;SDS011;47998;53.242;6.386;2023-06-22T01:06:35;10.60;;;9.50;;
51578;SDS011;47998;53.242;6.386;2023-06-22T01:09:22;15.13;;;12.68;;
51578;SDS011;47998;53.242;6.386;2023-06-22T01:11:57;13.25;;;11.85;;
51578;SDS011;47998;53.242;6.386;2023-06-22T01:14:30;19.60;;;16.13;;
51578;SDS011;47998;53.242;6.386;2023-06-22T01:17:03;18.35;;;15.32;;
51578;SDS011;47998;53.242;6.386;2023-06-22T01:19:37;113.43;;;15.88;;
51578;SDS011;47998;53.242;6.386;2023-06-22T01:22:17;27.50;;;10.45;;
51578;SDS011;47998;53.242;6.386;2023-06-22T01:34:18;31.50;;;12.05;;
51578;SDS011;47998;53.242;6.386;2023-06-22T01:36:47;10.80;;;9.90;;
51578;SDS011;47998;53.242;6.386;2023-06-22T01:39:16;14.63;;;13.35;;
51578;SDS011;47998;53.242;6.386;2023-06-22T01:41:45;13.65;;;12.55;;
51578;SDS011;47998;53.242;6.386;2023-06-22T01:44:13;104.88;;;19.23;;
51578;SDS011;47998;53.242;6.386;2023-06-22T01:46:38;469.20;;;37.25;;
51578;SDS011;47998;53.242;6.386;2023-06-22T01:49:05;48.63;;;17.95;;
51578;SDS011;47998;53.242;6.386;2023-06-22T01:51:34;41.05;;;18.52;;
51578;SDS011;47998;53.242;6.386;2023-06-22T01:54:07;24.42;;;17.50;;
51578;SDS011;47998;53.242;6.386;2023-06-22T01:56:33;23.95;;;16.52;;
51578;SDS011;47998;53.242;6.386;2023-06-22T01:59:20;77.60;;;19.23;;
51578;SDS011;47998;53.242;6.386;2023-06-22T02:02:03;22.45;;;16.30;;
51578;SDS011;47998;53.242;6.386;2023-06-22T02:04:38;108.15;;;22.60;;
51578;SDS011;47998;53.242;6.386;2023-06-22T02:07:15;171.75;;;25.40;;
51578;SDS011;47998;53.242;6.386;2023-06-22T02:09:51;297.73;;;33.72;;
51578;SDS011;47998;53.242;6.386;2023-06-22T02:12:20;109.90;;;29.90;;
51578;SDS011;47998;53.242;6.386;2023-06-22T02:14:50;497.13;;;53.38;;
51578;SDS011;47998;53.242;6.386;2023-06-22T02:17:22;180.30;;;33.92;;
51578;SDS011;47998;53.242;6.386;2023-06-22T02:19:53;34.10;;;24.92;;
51578;SDS011;47998;53.242;6.386;2023-06-22T02:22:21;68.97;;;37.80;;
51578;SDS011;47998;53.242;6.386;2023-06-22T02:24:52;43.53;;;36.08;;
51578;SDS011;47998;53.242;6.386;2023-06-22T02:27:23;44.90;;;35.38;;
51578;SDS011;47998;53.242;6.386;2023-06-22T02:29:49;46.65;;;37.35;;
51578;SDS011;47998;53.242;6.386;2023-06-22T02:32:20;75.65;;;44.63;;
51578;SDS011;47998;53.242;6.386;2023-06-22T02:34:56;59.30;;;42.63;;
51578;SDS011;47998;53.242;6.386;2023-06-22T02:37:22;86.93;;;48.60;;
51578;SDS011;47998;53.242;6.386;2023-06-22T02:39:50;75.57;;;48.83;;
51578;SDS011;47998;53.242;6.386;2023-06-22T02:42:18;93.90;;;47.25;;
51578;SDS011;47998;53.242;6.386;2023-06-22T02:44:54;79.55;;;49.55;;
51578;SDS011;47998;53.242;6.386;2023-06-22T02:47:30;77.28;;;50.88;;
51578;SDS011;47998;53.242;6.386;2023-06-22T02:50:03;80.45;;;50.97;;
51578;SDS011;47998;53.242;6.386;2023-06-22T02:52:34;106.80;;;62.03;;
51578;SDS011;47998;53.242;6.386;2023-06-22T02:55:05;126.22;;;65.38;;
51578;SDS011;47998;53.242;6.386;2023-06-22T02:57:35;118.82;;;64.85;;
51578;SDS011;47998;53.242;6.386;2023-06-22T03:00:12;109.55;;;64.80;;
51578;SDS011;47998;53.242;6.386;2023-06-22T03:02:44;104.68;;;62.35;;
51578;SDS011;47998;53.242;6.386;2023-06-22T03:05:17;95.80;;;58.67;;
51578;SDS011;47998;53.242;6.386;2023-06-22T03:07:45;77.40;;;50.95;;
51578;SDS011;47998;53.242;6.386;2023-06-22T03:10:16;103.45;;;49.97;;
51578;SDS011;47998;53.242;6.386;2023-06-22T03:12:42;57.92;;;42.75;;
51578;SDS011;47998;53.242;6.386;2023-06-22T03:15:13;88.22;;;45.92;;
51578;SDS011;47998;53.242;6.386;2023-06-22T03:17:44;154.70;;;45.88;;
51578;SDS011;47998;53.242;6.386;2023-06-22T03:20:21;49.17;;;35.65;;
51578;SDS011;47998;53.242;6.386;2023-06-22T03:22:51;92.43;;;43.17;;
51578;SDS011;47998;53.242;6.386;2023-06-22T03:25:18;52.75;;;36.92;;
51578;SDS011;47998;53.242;6.386;2023-06-22T03:27:43;175.15;;;45.22;;
51578;SDS011;47998;53.242;6.386;2023-06-22T03:30:11;365.52;;;54.28;;
51578;SDS011;47998;53.242;6.386;2023-06-22T03:32:37;190.23;;;37.25;;
51578;SDS011;47998;53.242;6.386;2023-06-22T03:35:06;155.40;;;32.67;;
51578;SDS011;47998;53.242;6.386;2023-06-22T03:37:37;44.22;;;24.48;;
51578;SDS011;47998;53.242;6.386;2023-06-22T03:40:06;144.02;;;36.15;;
51578;SDS011;47998;53.242;6.386;2023-06-22T03:42:40;201.13;;;38.78;;
51578;SDS011;47998;53.242;6.386;2023-06-22T03:45:13;203.95;;;32.33;;
51578;SDS011;47998;53.242;6.386;2023-06-22T03:47:39;103.65;;;30.23;;
51578;SDS011;47998;53.242;6.386;2023-06-22T03:50:08;45.88;;;31.13;;
51578;SDS011;47998;53.242;6.386;2023-06-22T03:52:40;66.00;;;33.72;;
51578;SDS011;47998;53.242;6.386;2023-06-22T03:55:13;150.20;;;36.60;;
51578;SDS011;47998;53.242;6.386;2023-06-22T03:57:41;259.77;;;39.47;;
51578;SDS011;47998;53.242;6.386;2023-06-22T04:00:07;165.60;;;34.95;;
51578;SDS011;47998;53.242;6.386;2023-06-22T04:02:35;96.78;;;37.00;;
51578;SDS011;47998;53.242;6.386;2023-06-22T04:05:03;47.20;;;34.53;;
51578;SDS011;47998;53.242;6.386;2023-06-22T04:07:30;288.40;;;60.42;;
51578;SDS011;47998;53.242;6.386;2023-06-22T04:09:56;185.80;;;46.03;;
51578;SDS011;47998;53.242;6.386;2023-06-22T04:12:21;730.00;;;89.70;;
51578;SDS011;47998;53.242;6.386;2023-06-22T04:14:47;64.68;;;37.83;;
51578;SDS011;47998;53.242;6.386;2023-06-22T04:17:20;42.47;;;36.38;;
51578;SDS011;47998;53.242;6.386;2023-06-22T04:19:57;42.53;;;36.50;;
51578;SDS011;47998;53.242;6.386;2023-06-22T04:22:30;45.45;;;38.65;;
51578;SDS011;47998;53.242;6.386;2023-06-22T04:25:03;49.55;;;41.00;;
51578;SDS011;47998;53.242;6.386;2023-06-22T04:27:38;52.47;;;40.53;;
51578;SDS011;47998;53.242;6.386;2023-06-22T04:30:06;74.15;;;48.17;;
51578;SDS011;47998;53.242;6.386;2023-06-22T04:32:38;66.93;;;44.80;;
51578;SDS011;47998;53.242;6.386;2023-06-22T04:35:11;78.03;;;49.80;;
51578;SDS011;47998;53.242;6.386;2023-06-22T04:37:46;88.55;;;52.72;;
51578;SDS011;47998;53.242;6.386;2023-06-22T04:40:23;91.55;;;55.30;;
51578;SDS011;47998;53.242;6.386;2023-06-22T04:42:51;90.13;;;55.65;;
51578;SDS011;47998;53.242;6.386;2023-06-22T04:45:23;81.82;;;53.00;;
51578;SDS011;47998;53.242;6.386;2023-06-22T04:47:48;107.25;;;62.92;;
51578;SDS011;47998;53.242;6.386;2023-06-22T04:50:17;119.28;;;64.28;;
51578;SDS011;47998;53.242;6.386;2023-06-22T04:52:46;128.05;;;66.63;;
51578;SDS011;47998;53.242;6.386;2023-06-22T04:55:12;147.20;;;74.03;;
51578;SDS011;47998;53.242;6.386;2023-06-22T04:57:40;174.45;;;86.50;;
51578;SDS011;47998;53.242;6.386;2023-06-22T05:00:09;182.38;;;90.95;;
51578;SDS011;47998;53.242;6.386;2023-06-22T05:02:42;186.40;;;89.70;;
51578;SDS011;47998;53.242;6.386;2023-06-22T05:05:09;186.77;;;92.57;;
51578;SDS011;47998;53.242;6.386;2023-06-22T05:07:40;188.18;;;90.18;;
51578;SDS011;47998;53.242;6.386;2023-06-22T05:10:23;193.88;;;94.55;;
51578;SDS011;47998;53.242;6.386;2023-06-22T05:12:53;167.70;;;90.20;;
51578;SDS011;47998;53.242;6.386;2023-06-22T05:15:30;157.65;;;81.78;;
51578;SDS011;47998;53.242;6.386;2023-06-22T05:18:01;146.80;;;82.95;;
51578;SDS011;47998;53.242;6.386;2023-06-22T05:20:30;140.63;;;76.85;;
51578;SDS011;47998;53.242;6.386;2023-06-22T05:23:01;126.45;;;74.10;;
51578;SDS011;47998;53.242;6.386;2023-06-22T05:25:30;101.18;;;64.63;;
51578;SDS011;47998;53.242;6.386;2023-06-22T05:28:03;95.70;;;63.80;;
51578;SDS011;47998;53.242;6.386;2023-06-22T05:30:38;95.90;;;62.00;;
51578;SDS011;47998;53.242;6.386;2023-06-22T05:33:04;81.90;;;59.20;;
51578;SDS011;47998;53.242;6.386;2023-06-22T05:35:30;72.78;;;53.45;;
51578;SDS011;47998;53.242;6.386;2023-06-22T05:37:56;57.35;;;48.10;;
51578;SDS011;47998;53.242;6.386;2023-06-22T05:40:24;51.90;;;42.88;;
51578;SDS011;47998;53.242;6.386;2023-06-22T05:42:52;46.33;;;40.47;;
51578;SDS011;47998;53.242;6.386;2023-06-22T05:45:18;42.58;;;37.20;;
51578;SDS011;47998;53.242;6.386;2023-06-22T05:47:43;41.03;;;36.53;;
51578;SDS011;47998;53.242;6.386;2023-06-22T05:50:12;35.30;;;31.30;;
51578;SDS011;47998;53.242;6.386;2023-06-22T05:52:45;34.53;;;30.55;;
51578;SDS011;47998;53.242;6.386;2023-06-22T05:55:11;36.03;;;32.13;;
51578;SDS011;47998;53.242;6.386;2023-06-22T05:57:37;33.55;;;28.95;;
51578;SDS011;47998;53.242;6.386;2023-06-22T06:00:02;33.50;;;29.85;;
51578;SDS011;47998;53.242;6.386;2023-06-22T06:02:34;35.65;;;30.60;;
51578;SDS011;47998;53.242;6.386;2023-06-22T06:05:10;34.15;;;30.45;;
51578;SDS011;47998;53.242;6.386;2023-06-22T06:07:39;31.10;;;27.85;;
51578;SDS011;47998;53.242;6.386;2023-06-22T06:10:07;33.65;;;30.15;;
51578;SDS011;47998;53.242;6.386;2023-06-22T06:12:33;37.95;;;31.58;;
51578;SDS011;47998;53.242;6.386;2023-06-22T06:14:59;37.67;;;30.67;;
51578;SDS011;47998;53.242;6.386;2023-06-22T06:17:25;35.75;;;31.85;;
51578;SDS011;47998;53.242;6.386;2023-06-22T06:19:55;37.53;;;31.25;;
51578;SDS011;47998;53.242;6.386;2023-06-22T06:22:23;34.05;;;30.27;;
51578;SDS011;47998;53.242;6.386;2023-06-22T06:24:49;35.13;;;29.70;;
51578;SDS011;47998;53.242;6.386;2023-06-22T06:27:15;34.38;;;30.67;;
51578;SDS011;47998;53.242;6.386;2023-06-22T06:29:46;35.20;;;31.20;;
51578;SDS011;47998;53.242;6.386;2023-06-22T06:32:16;35.92;;;31.15;;
51578;SDS011;47998;53.242;6.386;2023-06-22T06:34:44;38.83;;;34.70;;
51578;SDS011;47998;53.242;6.386;2023-06-22T06:37:15;35.53;;;31.63;;
51578;SDS011;47998;53.242;6.386;2023-06-22T06:39:44;33.33;;;28.83;;
51578;SDS011;47998;53.242;6.386;2023-06-22T06:42:17;36.72;;;31.70;;
51578;SDS011;47998;53.242;6.386;2023-06-22T06:44:44;33.70;;;30.17;;
51578;SDS011;47998;53.242;6.386;2023-06-22T06:47:10;36.75;;;31.27;;
51578;SDS011;47998;53.242;6.386;2023-06-22T06:49:38;39.03;;;31.83;;
51578;SDS011;47998;53.242;6.386;2023-06-22T06:52:09;37.95;;;31.90;;
51578;SDS011;47998;53.242;6.386;2023-06-22T06:54:37;35.50;;;30.58;;
51578;SDS011;47998;53.242;6.386;2023-06-22T06:57:03;34.05;;;30.35;;
51578;SDS011;47998;53.242;6.386;2023-06-22T06:59:29;31.65;;;28.20;;
51578;SDS011;47998;53.242;6.386;2023-06-22T07:01:55;34.05;;;28.40;;
51578;SDS011;47998;53.242;6.386;2023-06-22T07:04:21;31.40;;;26.80;;
51578;SDS011;47998;53.242;6.386;2023-06-22T07:06:53;32.17;;;25.30;;
51578;SDS011;47998;53.242;6.386;2023-06-22T07:09:22;31.90;;;27.23;;
51578;SDS011;47998;53.242;6.386;2023-06-22T07:11:49;30.85;;;27.52;;
51578;SDS011;47998;53.242;6.386;2023-06-22T07:14:15;30.77;;;23.80;;
51578;SDS011;47998;53.242;6.386;2023-06-22T07:16:45;31.88;;;26.88;;
51578;SDS011;47998;53.242;6.386;2023-06-22T07:19:11;27.98;;;24.90;;
51578;SDS011;47998;53.242;6.386;2023-06-22T07:21:40;24.60;;;21.98;;
51578;SDS011;47998;53.242;6.386;2023-06-22T07:24:06;21.50;;;19.33;;
51578;SDS011;47998;53.242;6.386;2023-06-22T07:26:32;21.90;;;19.52;;
51578;SDS011;47998;53.242;6.386;2023-06-22T07:28:58;24.20;;;21.23;;
51578;SDS011;47998;53.242;6.386;2023-06-22T07:31:24;24.98;;;21.10;;
51578;SDS011;47998;53.242;6.386;2023-06-22T07:33:50;24.63;;;21.83;;
51578;SDS011;47998;53.242;6.386;2023-06-22T07:36:17;25.65;;;20.80;;
51578;SDS011;47998;53.242;6.386;2023-06-22T07:38:43;21.25;;;18.95;;
51578;SDS011;47998;53.242;6.386;2023-06-22T07:41:11;19.85;;;17.75;;
51578;SDS011;47998;53.242;6.386;2023-06-22T07:43:39;16.13;;;14.43;;
51578;SDS011;47998;53.242;6.386;2023-06-22T07:46:04;16.80;;;15.07;;
51578;SDS011;47998;53.242;6.386;2023-06-22T07:48:30;14.88;;;13.32;;
51578;SDS011;47998;53.242;6.386;2023-06-22T07:50:56;15.50;;;13.30;;
51578;SDS011;47998;53.242;6.386;2023-06-22T07:53:22;15.00;;;12.13;;
51578;SDS011;47998;53.242;6.386;2023-06-22T07:55:49;17.52;;;12.55;;
51578;SDS011;47998;53.242;6.386;2023-06-22T07:58:17;13.15;;;10.38;;
51578;SDS011;47998;53.242;6.386;2023-06-22T08:00:44;14.55;;;11.25;;
51578;SDS011;47998;53.242;6.386;2023-06-22T08:03:14;16.10;;;12.27;;
51578;SDS011;47998;53.242;6.386;2023-06-22T08:05:40;13.05;;;11.57;;
51578;SDS011;47998;53.242;6.386;2023-06-22T08:08:06;16.45;;;12.50;;
51578;SDS011;47998;53.242;6.386;2023-06-22T08:10:32;14.50;;;12.80;;
51578;SDS011;47998;53.242;6.386;2023-06-22T08:12:57;12.48;;;11.15;;
51578;SDS011;47998;53.242;6.386;2023-06-22T08:15:25;16.58;;;11.00;;
51578;SDS011;47998;53.242;6.386;2023-06-22T08:17:52;12.82;;;10.60;;
51578;SDS011;47998;53.242;6.386;2023-06-22T08:20:19;11.10;;;9.98;;
51578;SDS011;47998;53.242;6.386;2023-06-22T08:22:45;11.90;;;9.13;;
51578;SDS011;47998;53.242;6.386;2023-06-22T08:25:11;9.75;;;7.90;;
51578;SDS011;47998;53.242;6.386;2023-06-22T08:27:38;9.68;;;7.90;;
51578;SDS011;47998;53.242;6.386;2023-06-22T08:30:04;10.40;;;7.65;;
51578;SDS011;47998;53.242;6.386;2023-06-22T08:32:32;7.60;;;6.72;;
51578;SDS011;47998;53.242;6.386;2023-06-22T08:34:58;9.27;;;6.45;;
51578;SDS011;47998;53.242;6.386;2023-06-22T08:37:24;10.55;;;7.32;;
51578;SDS011;47998;53.242;6.386;2023-06-22T08:39:56;7.93;;;6.03;;
51578;SDS011;47998;53.242;6.386;2023-06-22T08:42:26;7.25;;;5.75;;
51578;SDS011;47998;53.242;6.386;2023-06-22T08:44:52;8.70;;;6.85;;
51578;SDS011;47998;53.242;6.386;2023-06-22T08:47:19;8.63;;;6.32;;
51578;SDS011;47998;53.242;6.386;2023-06-22T08:49:49;7.28;;;5.45;;
51578;SDS011;47998;53.242;6.386;2023-06-22T08:52:14;8.20;;;5.80;;
51578;SDS011;47998;53.242;6.386;2023-06-22T08:54:40;6.57;;;5.30;;
51578;SDS011;47998;53.242;6.386;2023-06-22T08:57:06;5.18;;;4.68;;
51578;SDS011;47998;53.242;6.386;2023-06-22T08:59:34;5.72;;;5.13;;
51578;SDS011;47998;53.242;6.386;2023-06-22T09:02:02;6.10;;;5.15;;
51578;SDS011;47998;53.242;6.386;2023-06-22T09:04:28;7.95;;;5.22;;
51578;SDS011;47998;53.242;6.386;2023-06-22T09:06:54;7.32;;;6.25;;
51578;SDS011;47998;53.242;6.386;2023-06-22T09:09:20;6.50;;;4.65;;
51578;SDS011;47998;53.242;6.386;2023-06-22T09:11:49;6.00;;;4.18;;
51578;SDS011;47998;53.242;6.386;2023-06-22T09:14:14;4.65;;;3.25;;
51578;SDS011;47998;53.242;6.386;2023-06-22T09:16:40;5.18;;;3.00;;
51578;SDS011;47998;53.242;6.386;2023-06-22T09:19:08;5.20;;;3.42;;
51578;SDS011;47998;53.242;6.386;2023-06-22T09:21:34;7.55;;;3.53;;
51578;SDS011;47998;53.242;6.386;2023-06-22T09:24:00;5.28;;;3.40;;
51578;SDS011;47998;53.242;6.386;2023-06-22T09:26:25;5.68;;;3.50;;
51578;SDS011;47998;53.242;6.386;2023-06-22T09:28:51;6.00;;;3.85;;
51578;SDS011;47998;53.242;6.386;2023-06-22T09:31:17;6.05;;;4.90;;
51578;SDS011;47998;53.242;6.386;2023-06-22T09:33:46;5.38;;;4.88;;
51578;SDS011;47998;53.242;6.386;2023-06-22T09:36:12;6.63;;;4.25;;
51578;SDS011;47998;53.242;6.386;2023-06-22T09:38:38;6.78;;;5.43;;
51578;SDS011;47998;53.242;6.386;2023-06-22T09:41:06;7.65;;;4.90;;
51578;SDS011;47998;53.242;6.386;2023-06-22T09:43:32;6.70;;;5.13;;
51578;SDS011;47998;53.242;6.386;2023-06-22T09:46:00;4.78;;;4.07;;
51578;SDS011;47998;53.242;6.386;2023-06-22T09:48:27;5.63;;;4.50;;
51578;SDS011;47998;53.242;6.386;2023-06-22T09:50:54;5.97;;;4.90;;
51578;SDS011;47998;53.242;6.386;2023-06-22T09:53:20;5.82;;;4.35;;
51578;SDS011;47998;53.242;6.386;2023-06-22T09:55:46;7.40;;;5.22;;
51578;SDS011;47998;53.242;6.386;2023-06-22T09:58:12;7.20;;;6.38;;
51578;SDS011;47998;53.242;6.386;2023-06-22T10:00:37;7.25;;;5.85;;
51578;SDS011;47998;53.242;6.386;2023-06-22T10:03:05;7.35;;;5.82;;
51578;SDS011;47998;53.242;6.386;2023-06-22T10:05:31;7.10;;;6.40;;
51578;SDS011;47998;53.242;6.386;2023-06-22T10:07:57;7.43;;;6.65;;
51578;SDS011;47998;53.242;6.386;2023-06-22T10:10:22;7.88;;;5.63;;
51578;SDS011;47998;53.242;6.386;2023-06-22T10:12:54;8.40;;;6.80;;
51578;SDS011;47998;53.242;6.386;2023-06-22T10:15:22;8.10;;;6.95;;
51578;SDS011;47998;53.242;6.386;2023-06-22T10:17:47;8.32;;;5.78;;
51578;SDS011;47998;53.242;6.386;2023-06-22T10:20:15;8.05;;;6.85;;
51578;SDS011;47998;53.242;6.386;2023-06-22T10:22:43;9.15;;;7.55;;
51578;SDS011;47998;53.242;6.386;2023-06-22T10:25:12;7.88;;;7.07;;
51578;SDS011;47998;53.242;6.386;2023-06-22T10:27:40;8.32;;;7.07;;
51578;SDS011;47998;53.242;6.386;2023-06-22T10:30:11;8.98;;;7.00;;
51578;SDS011;47998;53.242;6.386;2023-06-22T10:32:38;9.13;;;7.60;;
51578;SDS011;47998;53.242;6.386;2023-06-22T10:35:04;8.55;;;6.72;;
51578;SDS011;47998;53.242;6.386;2023-06-22T10:37:31;8.35;;;6.78;;
51578;SDS011;47998;53.242;6.386;2023-06-22T10:39:57;7.35;;;6.47;;
51578;SDS011;47998;53.242;6.386;2023-06-22T10:42:23;7.38;;;6.20;;
51578;SDS011;47998;53.242;6.386;2023-06-22T10:44:48;10.00;;;6.47;;
51578;SDS011;47998;53.242;6.386;2023-06-22T10:47:14;6.85;;;6.00;;
51578;SDS011;47998;53.242;6.386;2023-06-22T10:49:40;8.68;;;7.72;;
51578;SDS011;47998;53.242;6.386;2023-06-22T10:52:06;8.07;;;7.28;;
51578;SDS011;47998;53.242;6.386;2023-06-22T10:54:33;8.18;;;5.80;;
51578;SDS011;47998;53.242;6.386;2023-06-22T10:57:03;9.32;;;6.47;;
51578;SDS011;47998;53.242;6.386;2023-06-22T10:59:29;8.30;;;6.65;;
51578;SDS011;47998;53.242;6.386;2023-06-22T11:01:57;8.75;;;7.25;;
51578;SDS011;47998;53.242;6.386;2023-06-22T11:04:24;8.35;;;6.53;;
51578;SDS011;47998;53.242;6.386;2023-06-22T11:06:50;8.23;;;6.30;;
51578;SDS011;47998;53.242;6.386;2023-06-22T11:09:16;8.80;;;6.88;;
51578;SDS011;47998;53.242;6.386;2023-06-22T11:11:45;8.43;;;5.97;;
51578;SDS011;47998;53.242;6.386;2023-06-22T11:14:15;7.07;;;5.30;;
51578;SDS011;47998;53.242;6.386;2023-06-22T11:16:41;8.48;;;6.85;;
51578;SDS011;47998;53.242;6.386;2023-06-22T11:19:07;6.88;;;5.80;;
51578;SDS011;47998;53.242;6.386;2023-06-22T11:21:35;8.15;;;6.97;;
51578;SDS011;47998;53.242;6.386;2023-06-22T11:24:01;11.40;;;6.63;;
51578;SDS011;47998;53.242;6.386;2023-06-22T11:26:27;9.50;;;6.82;;
51578;SDS011;47998;53.242;6.386;2023-06-22T11:28:53;7.13;;;5.82;;
51578;SDS011;47998;53.242;6.386;2023-06-22T11:31:19;8.20;;;6.40;;
51578;SDS011;47998;53.242;6.386;2023-06-22T11:33:44;5.65;;;5.05;;
51578;SDS011;47998;53.242;6.386;2023-06-22T11:36:13;8.20;;;6.72;;
51578;SDS011;47998;53.242;6.386;2023-06-22T11:38:40;8.23;;;6.13;;
51578;SDS011;47998;53.242;6.386;2023-06-22T11:41:07;9.00;;;6.18;;
51578;SDS011;47998;53.242;6.386;2023-06-22T11:43:33;6.70;;;5.90;;
51578;SDS011;47998;53.242;6.386;2023-06-22T11:46:00;7.68;;;5.65;;
51578;SDS011;47998;53.242;6.386;2023-06-22T11:48:27;8.60;;;6.45;;
51578;SDS011;47998;53.242;6.386;2023-06-22T11:50:53;5.57;;;4.97;;
51578;SDS011;47998;53.242;6.386;2023-06-22T11:53:20;7.00;;;5.35;;
51578;SDS011;47998;53.242;6.386;2023-06-22T11:55:46;4.93;;;4.40;;
51578;SDS011;47998;53.242;6.386;2023-06-22T11:58:14;5.97;;;4.70;;
51578;SDS011;47998;53.242;6.386;2023-06-22T12:00:39;7.18;;;4.88;;
51578;SDS011;47998;53.242;6.386;2023-06-22T12:03:06;5.90;;;4.68;;
51578;SDS011;47998;53.242;6.386;2023-06-22T12:05:32;6.35;;;4.72;;
51578;SDS011;47998;53.242;6.386;2023-06-22T12:07:58;6.13;;;4.57;;
51578;SDS011;47998;53.242;6.386;2023-06-22T12:10:25;6.25;;;4.43;;
51578;SDS011;47998;53.242;6.386;2023-06-22T12:12:53;6.18;;;4.45;;
51578;SDS011;47998;53.242;6.386;2023-06-22T12:15:19;5.60;;;4.47;;
51578;SDS011;47998;53.242;6.386;2023-06-22T12:17:45;7.25;;;5.15;;
51578;SDS011;47998;53.242;6.386;2023-06-22T12:20:13;7.78;;;4.50;;
51578;SDS011;47998;53.242;6.386;2023-06-22T12:22:39;8.30;;;4.25;;
51578;SDS011;47998;53.242;6.386;2023-06-22T12:25:06;6.00;;;4.40;;
51578;SDS011;47998;53.242;6.386;2023-06-22T12:27:35;7.10;;;3.45;;
51578;SDS011;47998;53.242;6.386;2023-06-22T12:30:02;4.30;;;3.25;;
51578;SDS011;47998;53.242;6.386;2023-06-22T12:32:28;5.32;;;3.55;;
51578;SDS011;47998;53.242;6.386;2023-06-22T12:34:54;5.18;;;4.03;;
51578;SDS011;47998;53.242;6.386;2023-06-22T12:37:20;4.03;;;3.63;;
51578;SDS011;47998;53.242;6.386;2023-06-22T12:39:46;6.70;;;4.00;;
51578;SDS011;47998;53.242;6.386;2023-06-22T12:42:11;4.63;;;3.67;;
51578;SDS011;47998;53.242;6.386;2023-06-22T12:44:38;4.20;;;3.70;;
51578;SDS011;47998;53.242;6.386;2023-06-22T12:47:05;4.00;;;2.95;;
51578;SDS011;47998;53.242;6.386;2023-06-22T12:49:31;6.70;;;3.60;;
51578;SDS011;47998;53.242;6.386;2023-06-22T12:51:56;6.15;;;3.30;;
51578;SDS011;47998;53.242;6.386;2023-06-22T12:54:22;4.53;;;3.00;;
51578;SDS011;47998;53.242;6.386;2023-06-22T12:56:49;5.38;;;3.28;;
51578;SDS011;47998;53.242;6.386;2023-06-22T12:59:15;4.93;;;3.22;;
51578;SDS011;47998;53.242;6.386;2023-06-22T13:01:42;5.50;;;3.08;;
51578;SDS011;47998;53.242;6.386;2023-06-22T13:04:11;4.28;;;2.78;;
51578;SDS011;47998;53.242;6.386;2023-06-22T13:06:40;3.40;;;2.35;;
51578;SDS011;47998;53.242;6.386;2023-06-22T13:09:06;5.00;;;2.50;;
51578;SDS011;47998;53.242;6.386;2023-06-22T13:11:32;5.07;;;2.20;;
51578;SDS011;47998;53.242;6.386;2023-06-22T13:13:57;3.38;;;2.70;;
51578;SDS011;47998;53.242;6.386;2023-06-22T13:16:23;4.07;;;2.22;;
51578;SDS011;47998;53.242;6.386;2023-06-22T13:18:49;4.45;;;2.78;;
51578;SDS011;47998;53.242;6.386;2023-06-22T13:21:14;2.80;;;2.08;;
51578;SDS011;47998;53.242;6.386;2023-06-22T13:23:40;2.35;;;1.80;;
51578;SDS011;47998;53.242;6.386;2023-06-22T13:26:07;4.38;;;2.15;;
51578;SDS011;47998;53.242;6.386;2023-06-22T13:28:35;3.40;;;2.55;;
51578;SDS011;47998;53.242;6.386;2023-06-22T13:31:00;4.68;;;2.20;;
51578;SDS011;47998;53.242;6.386;2023-06-22T13:33:26;2.45;;;1.98;;
51578;SDS011;47998;53.242;6.386;2023-06-22T13:35:52;3.38;;;2.72;;
51578;SDS011;47998;53.242;6.386;2023-06-22T13:38:18;4.13;;;1.67;;
51578;SDS011;47998;53.242;6.386;2023-06-22T13:40:43;3.50;;;1.50;;
51578;SDS011;47998;53.242;6.386;2023-06-22T13:43:09;3.30;;;1.83;;
51578;SDS011;47998;53.242;6.386;2023-06-22T13:45:35;3.88;;;1.58;;
51578;SDS011;47998;53.242;6.386;2023-06-22T13:48:01;3.97;;;1.50;;
51578;SDS011;47998;53.242;6.386;2023-06-22T13:50:27;3.03;;;1.35;;
51578;SDS011;47998;53.242;6.386;2023-06-22T13:52:54;2.08;;;1.52;;
51578;SDS011;47998;53.242;6.386;2023-06-22T13:55:20;3.35;;;1.23;;
51578;SDS011;47998;53.242;6.386;2023-06-22T13:57:46;4.35;;;1.35;;
51578;SDS011;47998;53.242;6.386;2023-06-22T14:00:12;2.42;;;1.42;;
51578;SDS011;47998;53.242;6.386;2023-06-22T14:02:38;2.10;;;1.30;;
51578;SDS011;47998;53.242;6.386;2023-06-22T14:05:05;4.50;;;1.30;;
51578;SDS011;47998;53.242;6.386;2023-06-22T14:07:31;2.25;;;1.20;;
51578;SDS011;47998;53.242;6.386;2023-06-22T14:09:57;4.30;;;1.60;;
51578;SDS011;47998;53.242;6.386;2023-06-22T14:12:23;4.32;;;1.55;;
51578;SDS011;47998;53.242;6.386;2023-06-22T14:14:51;2.40;;;1.20;;
51578;SDS011;47998;53.242;6.386;2023-06-22T14:17:17;3.88;;;1.20;;
51578;SDS011;47998;53.242;6.386;2023-06-22T14:19:48;3.85;;;2.58;;
51578;SDS011;47998;53.242;6.386;2023-06-22T14:22:15;2.95;;;1.77;;
51578;SDS011;47998;53.242;6.386;2023-06-22T14:24:44;2.20;;;1.30;;
51578;SDS011;47998;53.242;6.386;2023-06-22T14:27:09;1.83;;;1.20;;
51578;SDS011;47998;53.242;6.386;2023-06-22T14:29:35;2.25;;;1.05;;
51578;SDS011;47998;53.242;6.386;2023-06-22T14:32:01;2.15;;;1.23;;
51578;SDS011;47998;53.242;6.386;2023-06-22T14:34:27;3.97;;;3.10;;
51578;SDS011;47998;53.242;6.386;2023-06-22T14:36:52;5.85;;;1.38;;
51578;SDS011;47998;53.242;6.386;2023-06-22T14:39:18;4.88;;;1.70;;
51578;SDS011;47998;53.242;6.386;2023-06-22T14:41:45;3.53;;;1.70;;
51578;SDS011;47998;53.242;6.386;2023-06-22T14:44:11;4.22;;;1.63;;
51578;SDS011;47998;53.242;6.386;2023-06-22T14:46:36;3.03;;;1.50;;